createdAt,value
2022-09-01T00:00:15.179Z,35.45
2022-09-01T00:02:44.676Z,35.56
2022-09-01T00:05:12.958Z,35.32
2022-09-01T00:07:42.354Z,35.49
2022-09-01T00:10:11.482Z,35.41
2022-09-01T00:12:40.153Z,35.54
2022-09-01T00:15:11.636Z,35.51
2022-09-01T00:17:40.077Z,35.55
2022-09-01T00:20:09.380Z,35.73
2022-09-01T00:22:37.571Z,35.57
2022-09-01T00:25:08.154Z,35.67
2022-09-01T00:27:36.723Z,35.72
2022-09-01T00:30:06.335Z,35.69
2022-09-01T00:32:34.374Z,35.75
2022-09-01T00:35:02.381Z,35.69
2022-09-01T00:37:30.436Z,35.75
2022-09-01T00:39:58.592Z,35.85
2022-09-01T00:42:28.104Z,35.80
2022-09-01T00:44:56.088Z,35.95
2022-09-01T00:47:24.603Z,35.86
2022-09-01T00:49:53.308Z,35.81
2022-09-01T00:52:28.761Z,35.63
2022-09-01T00:55:01.228Z,35.68
2022-09-01T00:57:30.869Z,35.63
2022-09-01T01:00:01.978Z,35.91
2022-09-01T01:02:30.132Z,35.84
2022-09-01T01:04:59.485Z,35.68
2022-09-01T01:07:29.174Z,35.82
2022-09-01T01:09:57.756Z,35.69
2022-09-01T01:12:30.093Z,35.74
2022-09-01T01:14:59.546Z,35.74
2022-09-01T01:17:27.573Z,35.87
2022-09-01T01:20:15.205Z,35.95
2022-09-01T01:23:06.564Z,36.05
2022-09-01T01:25:42.577Z,35.99
2022-09-01T01:28:15.919Z,35.91
2022-09-01T01:30:52.425Z,36.02
2022-09-01T01:33:22.329Z,35.91
2022-09-01T01:35:53.709Z,35.93
2022-09-01T01:38:22.939Z,36.05
2022-09-01T01:40:56.051Z,35.99
2022-09-01T01:43:26.512Z,35.85
2022-09-01T01:45:56.824Z,36.09
2022-09-01T01:48:30.045Z,36.20
2022-09-01T01:50:59.689Z,35.98
2022-09-01T01:53:29.099Z,36.11
2022-09-01T01:56:00.113Z,36.03
2022-09-01T01:58:32.689Z,35.97
2022-09-01T02:01:01.035Z,36.08
2022-09-01T02:03:38.597Z,36.20
2022-09-01T02:06:09.836Z,36.12
2022-09-01T02:08:40.826Z,35.95
2022-09-01T02:11:13.240Z,36.40
2022-09-01T02:13:41.296Z,36.05
2022-09-01T02:16:13.161Z,36.28
2022-09-01T02:18:48.065Z,36.20
2022-09-01T02:21:20.280Z,36.11
2022-09-01T02:23:50.520Z,36.28
2022-09-01T02:26:23.878Z,36.18
2022-09-01T02:28:55.191Z,36.17
2022-09-01T02:31:28.517Z,36.08
2022-09-01T02:34:01.164Z,36.13
2022-09-01T02:36:32.856Z,36.19
2022-09-01T02:39:01.733Z,36.10
2022-09-01T02:41:34.437Z,35.95
2022-09-01T02:44:04.073Z,36.20
2022-09-01T02:46:32.534Z,36.02
2022-09-01T02:49:04.617Z,35.92
2022-09-01T02:51:33.399Z,35.96
2022-09-01T02:54:01.909Z,36.11
2022-09-01T02:56:31.362Z,35.88
2022-09-01T02:59:00.241Z,35.98
2022-09-01T03:01:31.033Z,36.09
2022-09-01T03:04:03.100Z,36.19
2022-09-01T03:06:34.272Z,36.19
2022-09-01T03:09:05.650Z,35.91
2022-09-01T03:11:36.544Z,36.24
2022-09-01T03:14:05.653Z,35.98
2022-09-01T03:16:33.720Z,36.03
2022-09-01T03:19:04.010Z,36.03
2022-09-01T03:21:32.630Z,35.97
2022-09-01T03:24:02.210Z,36.08
2022-09-01T03:26:31.897Z,36.20
2022-09-01T03:29:01.939Z,36.00
2022-09-01T03:31:31.522Z,36.26
2022-09-01T03:34:03.462Z,35.97
2022-09-01T03:36:35.454Z,36.17
2022-09-01T03:39:03.636Z,36.21
2022-09-01T03:41:33.225Z,36.20
2022-09-01T03:44:02.502Z,36.20
2022-09-01T03:46:36.927Z,36.34
2022-09-01T03:49:08.147Z,36.12
2022-09-01T03:51:39.404Z,36.23
2022-09-01T03:54:09.176Z,36.28
2022-09-01T03:56:41.794Z,36.18
2022-09-01T03:59:17.773Z,36.33
2022-09-01T04:01:47.717Z,36.15
2022-09-01T04:04:17.005Z,36.24
2022-09-01T04:06:46.865Z,36.01
2022-09-01T04:09:15.995Z,36.12
2022-09-01T04:11:47.015Z,36.06
2022-09-01T04:14:18.109Z,36.05
2022-09-01T04:17:05.693Z,36.10
2022-09-01T04:19:39.380Z,36.30
2022-09-01T04:22:14.492Z,36.18
2022-09-01T04:24:46.757Z,36.21
2022-09-01T04:27:18.119Z,36.23
2022-09-01T04:29:48.510Z,36.32
2022-09-01T04:32:17.181Z,36.06
2022-09-01T04:34:51.064Z,36.25
2022-09-01T04:37:21.783Z,36.20
2022-09-01T04:39:59.244Z,36.10
2022-09-01T04:42:32.574Z,36.16
2022-09-01T04:45:10.484Z,36.36
2022-09-01T04:47:42.160Z,36.33
2022-09-01T04:50:17.449Z,36.30
2022-09-01T04:53:07.164Z,36.40
2022-09-01T04:55:44.604Z,36.42
2022-09-01T04:58:17.473Z,36.47
2022-09-01T05:00:49.693Z,36.38
2022-09-01T05:03:21.605Z,36.50
2022-09-01T05:05:55.898Z,36.48
2022-09-01T05:08:24.989Z,36.28
2022-09-01T05:10:57.055Z,36.46
2022-09-01T05:13:39.756Z,36.30
2022-09-01T05:16:13.327Z,36.27
2022-09-01T05:18:47.848Z,36.30
2022-09-01T05:21:18.984Z,36.40
2022-09-01T05:23:48.759Z,36.40
2022-09-01T05:26:18.962Z,36.35
2022-09-01T05:28:49.584Z,36.36
2022-09-01T05:31:19.855Z,36.40
2022-09-01T05:33:48.524Z,36.44
2022-09-01T05:36:20.247Z,36.43
2022-09-01T05:38:49.027Z,36.48
2022-09-01T05:41:20.369Z,36.51
2022-09-01T05:43:55.188Z,36.37
2022-09-01T05:46:28.372Z,36.55
2022-09-01T05:48:58.522Z,36.40
2022-09-01T05:51:45.996Z,36.48
2022-09-01T05:54:18.905Z,36.74
2022-09-01T05:56:47.269Z,36.39
2022-09-01T05:59:24.451Z,36.52
2022-09-01T06:01:58.059Z,36.43
2022-09-01T06:04:27.835Z,36.31
2022-09-01T06:07:06.728Z,36.35
2022-09-01T06:09:39.786Z,36.37
2022-09-01T06:12:09.240Z,36.36
2022-09-01T06:14:37.307Z,36.38
2022-09-01T06:17:07.524Z,36.25
2022-09-01T06:19:37.429Z,36.29
2022-09-01T06:22:06.090Z,36.30
2022-09-01T06:24:34.601Z,36.28
2022-09-01T06:27:02.564Z,36.31
2022-09-01T06:29:31.388Z,36.39
2022-09-01T06:32:02.344Z,36.36
2022-09-01T06:34:36.201Z,36.23
2022-09-01T06:37:04.490Z,36.37
2022-09-01T06:39:34.455Z,36.30
2022-09-01T06:42:05.958Z,36.37
2022-09-01T06:44:46.026Z,36.39
2022-09-01T06:47:15.517Z,36.25
2022-09-01T06:49:45.057Z,36.20
2022-09-01T06:52:20.898Z,36.17
2022-09-01T06:54:52.226Z,36.18
2022-09-01T07:00:18.823Z,36.31
2022-09-01T07:02:50.328Z,36.23
2022-09-01T07:06:08.955Z,36.27
2022-09-01T07:12:24.339Z,36.27
2022-09-01T07:17:44.209Z,35.86
2022-09-01T07:20:28.486Z,35.93
2022-09-01T07:23:04.387Z,35.82
2022-09-01T07:26:01.362Z,35.97
2022-09-01T07:28:41.658Z,35.81
2022-09-01T07:39:54.992Z,35.76
2022-09-01T07:45:59.132Z,35.97
2022-09-01T07:49:01.293Z,35.87
2022-09-01T07:51:36.898Z,35.92
2022-09-01T07:54:05.688Z,35.71
2022-09-01T07:56:39.718Z,35.80
2022-09-01T07:59:15.253Z,35.77
2022-09-01T08:02:06.149Z,35.86
2022-09-01T08:04:34.917Z,35.93
2022-09-01T08:07:05.760Z,35.97
2022-09-01T08:09:43.838Z,35.84
2022-09-01T08:12:14.963Z,35.98
2022-09-01T08:17:58.363Z,35.55
2022-09-01T08:20:30.651Z,35.91
2022-09-01T08:23:10.765Z,35.71
2022-09-01T08:25:42.144Z,35.70
2022-09-01T08:28:12.590Z,35.49
2022-09-01T08:30:47.155Z,35.32
2022-09-01T08:33:22.675Z,35.26
2022-09-01T08:35:52.074Z,35.34
2022-09-01T08:38:20.746Z,35.60
2022-09-01T08:40:57.099Z,36.23
2022-09-01T08:43:46.589Z,36.32
2022-09-01T08:46:21.035Z,36.27
2022-09-01T08:52:12.441Z,36.97
2022-09-01T08:54:46.734Z,36.96
2022-09-01T08:57:22.872Z,37.09
2022-09-01T09:00:30.441Z,37.28
2022-09-01T09:03:15.508Z,37.68
2022-09-01T09:05:53.765Z,37.67
2022-09-01T09:08:45.898Z,37.46
2022-09-01T09:11:26.819Z,37.63
2022-09-01T09:14:04.192Z,37.47
2022-09-01T09:16:38.471Z,37.57
2022-09-01T09:19:11.068Z,37.50
2022-09-01T09:21:41.461Z,37.75
2022-09-01T09:24:18.136Z,37.51
2022-09-01T09:26:50.711Z,37.68
2022-09-01T09:29:20.750Z,37.53
2022-09-01T09:31:50.805Z,37.40
2022-09-01T09:34:32.781Z,37.12
2022-09-01T09:37:16.906Z,37.43
2022-09-01T09:39:45.273Z,36.95
2022-09-01T09:42:16.130Z,37.11
2022-09-01T09:44:51.152Z,37.30
2022-09-01T09:47:45.128Z,37.18
2022-09-01T09:50:26.946Z,36.75
2022-09-01T09:53:12.503Z,36.75
2022-09-01T09:55:56.048Z,36.48
2022-09-01T09:58:26.610Z,36.35
2022-09-01T10:01:07.928Z,36.22
2022-09-01T10:03:44.500Z,36.16
2022-09-01T10:06:15.209Z,36.33
2022-09-01T10:08:45.944Z,35.91
2022-09-01T10:11:33.415Z,36.19
2022-09-01T10:14:07.305Z,35.82
2022-09-01T10:16:42.534Z,36.10
2022-09-01T10:19:16.226Z,35.81
2022-09-01T10:21:46.710Z,35.60
2022-09-01T10:24:22.293Z,35.89
2022-09-01T10:26:58.033Z,35.71
2022-09-01T10:29:34.846Z,35.82
2022-09-01T10:32:30.740Z,35.42
2022-09-01T10:34:59.816Z,35.32
2022-09-01T10:37:28.481Z,35.46
2022-09-01T10:40:20.541Z,34.85
2022-09-01T10:42:53.952Z,35.06
2022-09-01T10:45:32.962Z,34.63
2022-09-01T10:48:31.167Z,34.43
2022-09-01T10:51:38.894Z,34.51
2022-09-01T10:54:09.554Z,34.21
2022-09-01T10:56:44.373Z,33.70
2022-09-01T10:59:32.685Z,33.71
2022-09-01T11:02:29.475Z,33.31
2022-09-01T11:05:16.592Z,33.60
2022-09-01T11:08:03.147Z,33.77
2022-09-01T11:10:47.716Z,33.78
2022-09-01T11:13:32.613Z,33.53
2022-09-01T11:19:36.171Z,33.74
2022-09-01T11:22:12.862Z,33.32
2022-09-01T11:24:58.086Z,33.50
2022-09-01T11:27:58.930Z,33.40
2022-09-01T11:30:37.284Z,33.64
2022-09-01T11:33:27.722Z,33.19
2022-09-01T11:36:01.620Z,33.20
2022-09-01T11:38:39.242Z,33.04
2022-09-01T11:41:07.934Z,33.33
2022-09-01T11:43:37.701Z,33.31
2022-09-01T11:46:16.631Z,33.06
2022-09-01T11:48:47.713Z,32.87
2022-09-01T11:51:21.441Z,32.88
2022-09-01T11:53:50.503Z,32.51
2022-09-01T11:56:21.856Z,32.36
2022-09-01T11:58:51.154Z,32.36
2022-09-01T12:01:21.087Z,32.50
2022-09-01T12:03:51.273Z,32.28
2022-09-01T12:06:24.738Z,32.38
2022-09-01T12:08:57.182Z,32.66
2022-09-01T12:11:30.430Z,32.15
2022-09-01T12:14:04.725Z,32.23
2022-09-01T12:16:38.017Z,32.24
2022-09-01T12:19:07.294Z,32.25
2022-09-01T12:21:38.299Z,31.80
2022-09-01T12:24:16.975Z,31.71
2022-09-01T12:26:45.924Z,31.87
2022-09-01T12:29:17.045Z,31.61
2022-09-01T12:31:47.014Z,31.40
2022-09-01T12:34:27.963Z,31.73
2022-09-01T12:37:09.128Z,31.55
2022-09-01T12:39:39.592Z,31.65
2022-09-01T12:42:24.323Z,32.06
2022-09-01T12:44:57.218Z,31.85
2022-09-01T12:47:51.021Z,31.94
2022-09-01T12:50:53.724Z,32.10
2022-09-01T12:53:25.804Z,32.34
2022-09-01T12:56:00.968Z,32.20
2022-09-01T12:58:31.911Z,31.99
2022-09-01T13:01:05.236Z,31.97
2022-09-01T13:03:34.574Z,32.10
2022-09-01T13:06:04.639Z,31.93
2022-09-01T13:08:34.734Z,32.00
2022-09-01T13:11:06.176Z,31.92
2022-09-01T13:13:35.302Z,31.98
2022-09-01T13:16:10.615Z,31.80
2022-09-01T13:21:27.603Z,32.49
2022-09-01T13:23:55.590Z,32.40
2022-09-01T13:26:24.144Z,32.29
2022-09-01T13:28:53.077Z,32.48
2022-09-01T13:31:30.212Z,32.29
2022-09-01T13:34:22.055Z,32.66
2022-09-01T13:36:51.503Z,32.60
2022-09-01T13:39:20.990Z,32.73
2022-09-01T13:41:49.357Z,32.88
2022-09-01T13:44:18.537Z,32.70
2022-09-01T13:50:05.099Z,32.77
2022-09-01T13:52:24.357Z,32.83
2022-09-01T13:54:52.220Z,33.12
2022-09-01T13:57:20.099Z,33.34
2022-09-01T13:59:47.973Z,33.33
2022-09-01T14:02:17.293Z,33.08
2022-09-01T14:04:46.385Z,33.27
2022-09-01T14:07:16.103Z,33.10
2022-09-01T14:09:43.980Z,33.36
2022-09-01T14:12:12.384Z,33.48
2022-09-01T14:17:29.745Z,33.18
2022-09-01T14:19:58.352Z,33.32
2022-09-01T14:22:26.215Z,33.40
2022-09-01T14:24:54.253Z,33.46
2022-09-01T14:27:22.604Z,33.28
2022-09-01T14:29:55.002Z,33.19
2022-09-01T14:32:27.060Z,33.08
2022-09-01T14:34:57.740Z,32.99
2022-09-01T14:37:26.085Z,33.22
2022-09-01T14:39:55.115Z,33.16
2022-09-01T14:42:24.035Z,32.88
2022-09-01T14:44:51.924Z,32.78
2022-09-01T14:47:22.217Z,32.79
2022-09-01T14:49:50.185Z,32.62
2022-09-01T14:52:21.289Z,32.43
2022-09-01T14:54:49.837Z,32.57
2022-09-01T14:57:37.411Z,32.59
2022-09-01T15:00:10.134Z,32.36
2022-09-01T15:02:38.355Z,32.34
2022-09-01T15:05:07.726Z,32.03
2022-09-01T15:07:37.785Z,31.78
2022-09-01T15:10:07.513Z,31.95
2022-09-01T15:12:35.725Z,31.93
2022-09-01T15:15:03.785Z,31.88
2022-09-01T15:17:31.857Z,31.91
2022-09-01T15:20:20.264Z,31.75
2022-09-01T15:22:50.482Z,31.70
2022-09-01T15:25:18.756Z,31.66
2022-09-01T15:27:47.120Z,31.45
2022-09-01T15:30:17.186Z,31.28
2022-09-01T15:32:46.432Z,31.19
2022-09-01T15:35:15.391Z,31.20
2022-09-01T15:37:44.001Z,31.16
2022-09-01T15:40:13.820Z,31.14
2022-09-01T15:42:41.798Z,31.04
2022-09-01T15:45:16.135Z,31.15
2022-09-01T15:47:45.949Z,30.92
2022-09-01T15:50:21.477Z,31.15
2022-09-01T15:52:53.848Z,30.71
2022-09-01T15:55:25.556Z,30.74
2022-09-01T15:57:55.095Z,30.73
2022-09-01T16:00:25.309Z,30.73
2022-09-01T16:02:54.499Z,30.77
2022-09-01T16:05:22.794Z,30.77
2022-09-01T16:07:52.668Z,30.88
2022-09-01T16:10:21.510Z,30.91
2022-09-01T16:12:51.809Z,31.00
2022-09-01T16:15:22.753Z,30.97
2022-09-01T16:18:07.351Z,31.27
2022-09-01T16:20:38.843Z,31.58
2022-09-01T16:23:17.129Z,31.76
2022-09-01T16:25:46.402Z,31.77
2022-09-01T16:28:24.070Z,31.67
2022-09-01T16:30:53.688Z,31.83
2022-09-01T16:33:21.715Z,31.97
2022-09-01T16:36:06.981Z,32.17
2022-09-01T16:38:47.501Z,32.38
2022-09-01T16:41:28.461Z,32.79
2022-09-01T16:44:06.823Z,32.69
2022-09-01T16:46:43.282Z,32.85
2022-09-01T16:49:20.072Z,32.69
2022-09-01T16:51:57.337Z,32.73
2022-09-01T16:54:37.785Z,32.85
2022-09-01T16:57:13.485Z,32.81
2022-09-01T16:59:52.029Z,32.81
2022-09-01T17:02:38.444Z,32.99
2022-09-01T17:05:18.012Z,32.98
2022-09-01T17:07:52.997Z,33.17
2022-09-01T17:10:32.825Z,33.18
2022-09-01T17:13:17.322Z,33.32
2022-09-01T17:15:51.886Z,33.32
2022-09-01T17:18:29.761Z,33.47
2022-09-01T17:21:03.318Z,33.71
2022-09-01T17:23:38.243Z,33.93
2022-09-01T17:26:15.349Z,33.94
2022-09-01T17:28:48.932Z,34.06
2022-09-01T17:31:30.638Z,34.23
2022-09-01T17:34:10.285Z,34.13
2022-09-01T17:36:47.411Z,34.31
2022-09-01T17:39:28.376Z,34.54
2022-09-01T17:42:01.038Z,34.64
2022-09-01T17:44:37.509Z,34.82
2022-09-01T17:47:17.693Z,34.86
2022-09-01T17:49:54.800Z,34.92
2022-09-01T17:52:37.254Z,34.99
2022-09-01T17:55:14.092Z,35.08
2022-09-01T17:57:47.746Z,35.29
2022-09-01T18:00:23.457Z,35.20
2022-09-01T18:03:14.942Z,35.22
2022-09-01T18:05:46.448Z,35.47
2022-09-01T18:08:30.641Z,35.53
2022-09-01T18:11:02.350Z,35.44
2022-09-01T18:13:52.489Z,35.40
2022-09-01T18:16:24.767Z,35.43
2022-09-01T18:18:54.826Z,35.51
2022-09-01T18:21:27.480Z,35.54
2022-09-01T18:24:02.790Z,35.55
2022-09-01T18:26:36.307Z,35.41
2022-09-01T18:29:06.434Z,35.63
2022-09-01T18:31:56.753Z,35.42
2022-09-01T18:34:35.419Z,35.52
2022-09-01T18:37:12.109Z,35.36
2022-09-01T18:39:51.413Z,35.43
2022-09-01T18:42:26.356Z,35.25
2022-09-01T18:45:05.742Z,35.64
2022-09-01T18:47:36.466Z,35.47
2022-09-01T18:50:11.919Z,35.47
2022-09-01T18:52:52.590Z,35.33
2022-09-01T18:55:28.029Z,35.70
2022-09-01T18:57:58.905Z,35.60
2022-09-01T19:00:35.132Z,35.67
2022-09-01T19:03:12.341Z,35.50
2022-09-01T19:05:54.493Z,35.75
2022-09-01T19:08:31.955Z,35.53
2022-09-01T19:11:09.229Z,35.63
2022-09-01T19:13:53.414Z,35.67
2022-09-01T19:16:33.542Z,35.85
2022-09-01T19:19:10.181Z,35.64
2022-09-01T19:21:39.740Z,35.82
2022-09-01T19:24:13.178Z,35.67
2022-09-01T19:26:44.476Z,35.98
2022-09-01T19:29:17.627Z,36.05
2022-09-01T19:31:49.232Z,35.83
2022-09-01T19:34:22.517Z,35.78
2022-09-01T19:36:57.555Z,36.00
2022-09-01T19:39:28.632Z,35.93
2022-09-01T19:42:04.870Z,35.88
2022-09-01T19:44:42.406Z,35.63
2022-09-01T19:47:16.780Z,35.64
2022-09-01T19:49:52.584Z,35.75
2022-09-01T19:52:32.386Z,35.56
2022-09-01T19:55:04.747Z,35.79
2022-09-01T19:57:40.697Z,35.58
2022-09-01T20:00:14.481Z,35.73
2022-09-01T20:02:48.121Z,35.88
2022-09-01T20:05:27.003Z,35.75
2022-09-01T20:08:02.288Z,36.00
2022-09-01T20:10:56.684Z,35.87
2022-09-01T20:13:38.860Z,35.95
2022-09-01T20:16:19.995Z,35.88
2022-09-01T20:18:51.098Z,36.09
2022-09-01T20:21:21.984Z,36.24
2022-09-01T20:23:58.661Z,36.06
2022-09-01T20:26:32.748Z,36.18
2022-09-01T20:29:06.929Z,36.14
2022-09-01T20:31:40.422Z,36.46
2022-09-01T20:34:15.206Z,36.48
2022-09-01T20:36:47.313Z,36.31
2022-09-01T20:39:36.441Z,36.47
2022-09-01T20:42:09.180Z,36.32
2022-09-01T20:44:44.582Z,36.04
2022-09-01T20:47:13.246Z,36.14
2022-09-01T20:49:41.640Z,36.21
2022-09-01T20:52:16.456Z,36.18
2022-09-01T20:54:53.810Z,36.30
2022-09-01T20:57:31.488Z,36.09
2022-09-01T21:00:03.758Z,36.05
2022-09-01T21:02:43.193Z,36.26
2022-09-01T21:05:22.147Z,36.18
2022-09-01T21:08:01.043Z,36.05
2022-09-01T21:10:38.610Z,36.09
2022-09-01T21:13:20.673Z,36.02
2022-09-01T21:15:59.309Z,36.15
2022-09-01T21:18:41.989Z,36.18
2022-09-01T21:21:18.964Z,36.18
2022-09-01T21:23:46.981Z,36.20
2022-09-01T21:26:16.344Z,35.89
2022-09-01T21:28:48.104Z,36.21
2022-09-01T21:31:16.467Z,36.39
2022-09-01T21:33:44.489Z,36.25
2022-09-01T21:36:12.695Z,36.10
2022-09-01T21:38:40.704Z,36.16
2022-09-01T21:41:13.005Z,36.17
2022-09-01T21:43:46.356Z,36.34
2022-09-01T21:46:16.433Z,36.19
2022-09-01T21:48:44.681Z,36.19
2022-09-01T21:51:12.765Z,36.04
2022-09-01T21:53:40.738Z,35.92
2022-09-01T21:56:08.911Z,36.18
2022-09-01T21:58:38.521Z,36.16
2022-09-01T22:01:08.036Z,36.34
2022-09-01T22:03:38.696Z,36.11
2022-09-01T22:06:06.761Z,36.17
2022-09-01T22:08:34.738Z,36.07
2022-09-01T22:11:02.688Z,36.27
2022-09-01T22:13:30.648Z,36.09
2022-09-01T22:15:58.575Z,36.10
2022-09-01T22:18:28.013Z,36.38
2022-09-01T22:21:02.965Z,36.09
2022-09-01T22:23:31.009Z,36.30
2022-09-01T22:25:59.080Z,36.00
2022-09-01T22:28:27.406Z,36.07
2022-09-01T22:30:55.410Z,35.99
2022-09-01T22:33:25.101Z,36.17
2022-09-01T22:35:57.365Z,35.95
2022-09-01T22:38:25.337Z,36.08
2022-09-01T22:40:55.447Z,36.10
2022-09-01T22:43:24.407Z,35.99
2022-09-01T22:45:53.321Z,36.20
2022-09-01T22:48:25.533Z,36.06
2022-09-01T22:50:55.279Z,36.07
2022-09-01T22:53:23.704Z,36.25
2022-09-01T22:55:52.705Z,36.22
2022-09-01T22:58:21.509Z,36.29
2022-09-01T23:00:52.414Z,36.12
2022-09-01T23:03:21.937Z,36.32
2022-09-01T23:05:50.830Z,36.13
2022-09-01T23:08:20.165Z,36.08
2022-09-01T23:10:48.297Z,35.92
2022-09-01T23:13:17.261Z,36.10
2022-09-01T23:15:45.288Z,36.13
2022-09-01T23:18:13.272Z,36.01
2022-09-01T23:20:41.300Z,35.70
2022-09-01T23:23:09.297Z,35.92
2022-09-01T23:25:39.395Z,35.68
2022-09-01T23:28:09.966Z,35.56
2022-09-01T23:30:38.238Z,35.49
2022-09-01T23:33:06.301Z,35.29
2022-09-01T23:35:34.334Z,35.23
2022-09-01T23:38:02.286Z,35.11
2022-09-01T23:40:30.390Z,35.05
2022-09-01T23:42:59.741Z,34.96
2022-09-01T23:45:29.819Z,35.17
2022-09-01T23:48:04.157Z,34.74
2022-09-01T23:50:32.167Z,34.62
2022-09-01T23:53:00.130Z,34.75
2022-09-01T23:55:28.135Z,34.74
2022-09-01T23:57:56.035Z,34.86
